createdAt,value
2019-01-29T03:33:01.183Z,8.60
2019-01-29T03:35:30.368Z,9.10
2019-01-29T03:38:00.185Z,9.30
2019-01-29T03:40:30.150Z,9.40
2019-01-29T03:42:59.574Z,9.07
2019-01-29T03:45:29.134Z,9.40
2019-01-29T03:47:58.875Z,9.47
2019-01-29T03:50:29.205Z,11.13
2019-01-29T04:06:23.276Z,12.43
2019-01-29T04:08:52.765Z,12.43
2019-01-29T04:11:22.242Z,12.60
2019-01-29T04:13:51.402Z,14.33
2019-01-29T04:16:20.964Z,13.27
2019-01-29T04:18:50.508Z,12.37
2019-01-29T04:21:20.108Z,12.77
2019-01-29T04:23:49.713Z,14.40
2019-01-29T04:26:19.340Z,13.17
2019-01-29T04:28:49.153Z,13.63
2019-01-29T04:55:24.259Z,14.67
2019-01-29T04:57:53.851Z,15.13
2019-01-29T05:00:25.970Z,14.40
2019-01-29T05:02:55.693Z,14.43
2019-01-29T05:05:45.954Z,14.23
2019-01-29T05:08:15.258Z,14.27
2019-01-29T05:10:44.740Z,12.97
2019-01-29T05:13:14.229Z,13.47
2019-01-29T05:15:43.754Z,14.80
2019-01-29T05:18:12.933Z,14.53
2019-01-29T05:20:42.585Z,14.73
2019-01-29T05:23:11.788Z,14.80
2019-01-29T05:25:41.593Z,13.47
2019-01-29T05:28:10.781Z,13.87
2019-01-29T05:30:40.279Z,12.50
2019-01-29T05:33:09.464Z,11.93
2019-01-29T05:35:38.664Z,11.63
2019-01-29T05:38:08.464Z,10.97
2019-01-29T05:40:37.658Z,11.27
2019-01-29T05:43:07.399Z,9.90
2019-01-29T05:45:37.224Z,11.10
2019-01-29T05:48:07.099Z,9.77
2019-01-29T05:50:36.273Z,9.70
2019-01-29T05:53:05.621Z,10.10
2019-01-29T05:55:34.798Z,10.10
2019-01-29T05:58:04.627Z,11.10
2019-01-29T06:33:24.840Z,15.97
2019-01-29T06:35:54.046Z,15.37
2019-01-29T06:38:23.524Z,13.13
2019-01-29T06:40:52.989Z,13.23
2019-01-29T06:43:22.203Z,13.53
2019-01-29T06:45:51.668Z,13.80
2019-01-29T06:48:20.867Z,13.43
2019-01-29T06:50:50.300Z,13.87
2019-01-29T06:53:19.770Z,14.50
2019-01-29T06:55:48.950Z,14.70
2019-01-29T06:58:18.733Z,14.23
2019-01-29T07:00:48.444Z,13.10
2019-01-29T07:03:18.432Z,15.10
2019-01-29T07:05:47.605Z,14.00
2019-01-29T07:08:17.347Z,15.53
2019-01-29T07:10:46.771Z,14.77
2019-01-29T07:13:16.240Z,14.93
2019-01-29T07:16:04.956Z,14.40
2019-01-29T07:18:53.357Z,14.70
2019-01-29T07:21:23.358Z,15.67
2019-01-29T07:23:52.551Z,15.57
2019-01-29T07:26:22.291Z,16.40
2019-01-29T07:28:51.524Z,15.47
2019-01-29T07:31:20.726Z,14.27
2019-01-29T07:33:49.926Z,14.70
2019-01-29T07:36:19.108Z,14.67
2019-01-29T07:38:48.580Z,14.37
2019-01-29T07:41:17.764Z,14.27
2019-01-29T07:43:46.973Z,15.53
2019-01-29T07:46:16.152Z,15.33
2019-01-29T07:48:45.904Z,14.80
2019-01-29T07:51:15.371Z,15.30
2019-01-29T07:53:44.907Z,14.80
2019-01-29T07:56:14.100Z,14.57
2019-01-29T07:58:44.310Z,13.20
2019-01-29T08:01:14.134Z,14.10
2019-01-29T08:03:43.622Z,13.23
2019-01-29T08:06:13.054Z,12.80
2019-01-29T08:08:42.244Z,12.87
2019-01-29T08:11:11.417Z,12.80
2019-01-29T08:13:40.896Z,12.27
2019-01-29T08:16:10.501Z,11.57
2019-01-29T08:18:39.960Z,12.67
2019-01-29T08:21:09.432Z,12.43
2019-01-29T08:23:38.631Z,12.37
2019-01-29T08:26:26.893Z,12.10
2019-01-29T08:28:56.387Z,10.87
2019-01-29T08:31:25.886Z,10.73
2019-01-29T08:33:55.100Z,10.27
2019-01-29T08:36:24.641Z,11.17
2019-01-29T08:38:54.780Z,10.40
2019-01-29T08:41:24.534Z,10.07
2019-01-29T08:43:53.732Z,10.87
2019-01-29T08:46:23.509Z,10.00
2019-01-29T08:48:52.945Z,17.17
2019-01-29T08:51:22.130Z,26.73
2019-01-29T08:53:51.575Z,28.07
2019-01-29T08:56:21.024Z,27.67
2019-01-29T08:58:50.232Z,28.07
2019-01-29T09:01:19.708Z,35.60
2019-01-29T09:03:49.354Z,37.30
2019-01-29T09:06:18.533Z,36.47
2019-01-29T09:12:11.923Z,10.60
2019-01-29T09:14:41.476Z,8.07
2019-01-29T09:17:10.648Z,6.93
2019-01-29T09:19:41.155Z,6.70
2019-01-29T09:22:10.713Z,7.57
2019-01-29T09:24:40.214Z,6.10
2019-01-29T09:27:09.686Z,6.83
2019-01-29T09:29:39.587Z,7.57
2019-01-29T09:32:08.802Z,7.93
2019-01-29T09:34:38.708Z,6.63
2019-01-29T09:37:07.880Z,7.63
2019-01-29T09:39:37.382Z,6.97
2019-01-29T09:44:56.806Z,7.30
2019-01-29T09:47:26.320Z,7.00
2019-01-29T09:49:56.121Z,6.53
2019-01-29T09:52:25.622Z,6.70
2019-01-29T09:54:54.805Z,5.60
2019-01-29T09:57:23.978Z,5.60
2019-01-29T09:59:53.202Z,5.57
2019-01-29T10:02:22.388Z,5.30
2019-01-29T10:04:51.588Z,4.67
2019-01-29T10:07:21.405Z,5.23
2019-01-29T10:09:51.376Z,4.30
2019-01-29T10:12:20.597Z,4.70
2019-01-29T10:14:50.146Z,4.07
2019-01-29T10:17:19.507Z,4.70
2019-01-29T10:19:48.969Z,5.13
2019-01-29T10:22:18.157Z,5.20
2019-01-29T11:28:43.225Z,3.67
2019-01-29T11:34:35.466Z,3.53
2019-01-29T11:37:12.507Z,2.90
2019-01-29T11:40:04.987Z,3.40
2019-01-29T12:06:25.394Z,3.27
2019-01-29T12:08:55.128Z,3.33
2019-01-29T12:11:28.290Z,2.90
2019-01-29T12:13:57.822Z,2.40
2019-01-29T12:16:47.500Z,3.03
2019-01-29T12:19:25.068Z,2.73
2019-01-29T12:21:54.740Z,3.97
2019-01-29T12:24:24.242Z,4.00
2019-01-29T12:26:53.707Z,3.83
2019-01-29T12:29:22.898Z,4.20
2019-01-29T12:31:52.417Z,3.90
2019-01-29T12:34:21.822Z,3.80
2019-01-29T12:36:51.333Z,3.77
2019-01-29T12:39:20.516Z,3.13
2019-01-29T12:41:49.719Z,3.43
2019-01-29T12:44:19.434Z,3.20
2019-01-29T12:46:48.635Z,3.53
2019-01-29T12:49:18.363Z,3.70
2019-01-29T12:52:06.766Z,3.70
2019-01-29T12:54:36.646Z,3.87
2019-01-29T12:57:05.852Z,4.00
2019-01-29T12:59:35.909Z,5.03
2019-01-29T13:02:05.190Z,3.40
2019-01-29T13:04:34.642Z,4.00
2019-01-29T13:07:03.950Z,4.13
2019-01-29T13:09:33.485Z,4.57
2019-01-29T13:12:02.679Z,4.20
2019-01-29T13:17:41.078Z,4.30
2019-01-29T13:20:11.001Z,4.63
2019-01-29T13:22:59.839Z,5.60
2019-01-29T13:25:29.044Z,4.87
2019-01-29T13:27:59.163Z,4.60
2019-01-29T13:30:30.544Z,5.93
2019-01-29T13:33:00.118Z,4.40
2019-01-29T13:35:31.953Z,4.23
2019-01-29T13:38:01.623Z,3.70
2019-01-29T13:40:31.061Z,5.17
2019-01-29T13:43:00.979Z,5.90
2019-01-29T13:45:30.163Z,4.23
2019-01-29T13:47:59.615Z,4.90
2019-01-29T13:50:34.634Z,4.50
2019-01-29T13:53:04.523Z,4.70
2019-01-29T13:55:33.707Z,5.13
2019-01-29T13:58:02.973Z,4.27
2019-01-29T14:00:33.069Z,4.80
2019-01-29T14:03:02.600Z,5.23
2019-01-29T14:05:32.126Z,4.00
2019-01-29T14:08:01.283Z,4.13
2019-01-29T14:10:30.440Z,4.63
2019-01-29T14:49:45.845Z,3.70
2019-01-29T14:52:16.312Z,3.50
2019-01-29T14:54:46.031Z,3.20
2019-01-29T14:57:15.268Z,3.20
2019-01-29T14:59:44.515Z,3.80
2019-01-29T15:02:13.703Z,3.73
2019-01-29T15:04:43.538Z,4.13
2019-01-29T15:07:13.121Z,3.97
2019-01-29T15:09:42.345Z,4.20
2019-01-29T15:12:11.569Z,3.80
2019-01-29T15:14:40.792Z,3.30
2019-01-29T15:17:28.934Z,4.30
2019-01-29T15:19:58.113Z,4.87
2019-01-29T15:22:27.421Z,4.13
2019-01-29T15:24:57.286Z,4.00
2019-01-29T15:27:27.319Z,4.33
2019-01-29T15:29:56.487Z,4.13
2019-01-29T15:32:26.153Z,4.93
2019-01-29T15:34:55.316Z,4.33
2019-01-29T15:37:24.896Z,3.70
2019-01-29T15:39:55.230Z,3.47
2019-01-29T15:42:24.706Z,3.73
2019-01-29T15:44:54.159Z,3.90
2019-01-29T15:47:23.618Z,3.60
2019-01-29T15:49:52.797Z,4.10
2019-01-29T15:52:22.325Z,3.90
2019-01-29T15:54:51.741Z,4.20
2019-01-29T15:57:20.959Z,3.67
2019-01-29T15:59:50.457Z,4.20
2019-01-29T16:02:19.972Z,4.13
2019-01-29T16:04:49.140Z,4.20
2019-01-29T16:07:18.712Z,4.80
2019-01-29T16:09:48.474Z,4.20
2019-01-29T16:12:17.702Z,4.27
2019-01-29T16:14:46.878Z,4.73
2019-01-29T16:17:16.985Z,4.00
2019-01-29T16:19:47.345Z,3.73
2019-01-29T16:22:16.817Z,3.90
2019-01-29T16:24:46.359Z,4.10
2019-01-29T16:27:22.562Z,4.23
2019-01-29T16:29:47.155Z,4.73
2019-01-29T16:32:16.362Z,4.90
2019-01-29T16:34:45.531Z,5.00
2019-01-29T16:37:14.991Z,4.40
2019-01-29T16:39:44.166Z,4.47
2019-01-29T16:42:13.367Z,4.50
2019-01-29T16:44:42.545Z,4.50
2019-01-29T16:47:11.789Z,4.60
2019-01-29T16:49:41.376Z,5.00
2019-01-29T16:52:10.848Z,4.93
2019-01-29T16:54:40.416Z,4.77
2019-01-29T16:57:10.693Z,4.70
2019-01-29T16:59:40.192Z,4.90
2019-01-29T17:02:09.391Z,4.50
2019-01-29T17:04:38.897Z,5.17
2019-01-29T17:07:08.158Z,4.47
2019-01-29T17:09:37.370Z,5.37
2019-01-29T17:12:06.812Z,5.47
2019-01-29T17:14:36.311Z,5.80
2019-01-29T17:17:05.750Z,4.90
2019-01-29T17:19:37.079Z,5.10
2019-01-29T17:22:07.007Z,4.57
2019-01-29T17:24:36.288Z,4.43
2019-01-29T17:27:05.592Z,4.97
2019-01-29T17:29:34.790Z,4.87
2019-01-29T17:32:06.336Z,5.23
2019-01-29T17:34:35.978Z,5.03
2019-01-29T17:37:05.583Z,5.30
2019-01-29T17:39:35.134Z,5.13
2019-01-29T17:42:04.809Z,5.53
2019-01-29T17:44:34.077Z,5.53
2019-01-29T17:47:03.700Z,5.30
2019-01-29T17:49:32.931Z,5.50
2019-01-29T17:52:02.439Z,5.03
2019-01-29T17:54:32.204Z,5.90
2019-01-29T17:57:02.037Z,5.97
2019-01-29T17:59:31.244Z,5.63
2019-01-29T18:02:00.972Z,5.30
2019-01-29T18:04:30.196Z,6.50
2019-01-29T18:06:59.668Z,5.50
2019-01-29T18:09:47.952Z,6.63
2019-01-29T18:12:17.675Z,6.07
2019-01-29T18:14:47.235Z,6.23
2019-01-29T18:17:16.409Z,6.03
2019-01-29T18:19:45.900Z,5.20
2019-01-29T18:22:36.501Z,6.00
2019-01-29T18:25:08.793Z,6.27
2019-01-29T18:27:38.536Z,6.40
2019-01-29T18:30:11.025Z,6.07
2019-01-29T18:32:40.532Z,6.40
2019-01-29T18:35:29.072Z,6.00
2019-01-29T18:37:58.922Z,5.57
2019-01-29T18:41:06.226Z,6.90
2019-01-29T19:21:54.303Z,7.00
2019-01-29T19:24:43.214Z,7.13
2019-01-29T19:27:12.665Z,6.47
2019-01-29T20:13:39.188Z,5.33
2019-01-29T20:30:47.287Z,5.40
2019-01-29T20:38:35.479Z,6.03
2019-01-29T20:51:54.205Z,5.10
2019-01-29T20:54:23.381Z,5.97
2019-01-29T21:05:41.110Z,5.47
2019-01-29T21:13:28.811Z,4.80
2019-01-29T21:15:58.544Z,4.57
2019-01-29T21:18:29.811Z,4.90
2019-01-29T21:20:59.666Z,4.87
2019-01-29T21:23:29.111Z,4.70
2019-01-29T21:26:01.727Z,4.40
2019-01-29T21:28:31.654Z,4.67
2019-01-29T21:31:01.424Z,4.30
2019-01-29T21:33:33.787Z,4.33
2019-01-29T21:36:05.554Z,3.93
2019-01-29T21:38:43.223Z,4.50
2019-01-29T21:41:13.767Z,4.30
2019-01-29T21:43:44.950Z,4.40
2019-01-29T21:46:14.652Z,4.60
2019-01-29T21:48:46.117Z,4.03
2019-01-29T21:51:15.622Z,4.20
2019-01-29T21:53:45.122Z,4.10
2019-01-29T21:56:14.331Z,4.10
2019-01-29T21:58:43.786Z,4.60
2019-01-29T22:01:15.024Z,4.90
2019-01-29T22:03:49.658Z,4.53
2019-01-29T22:06:20.014Z,4.73
2019-01-29T22:08:53.716Z,4.97
2019-01-29T22:11:24.933Z,4.73
2019-01-29T22:13:54.113Z,4.87
2019-01-29T22:16:23.311Z,5.47
2019-01-29T22:18:52.524Z,5.83
2019-01-29T22:21:22.123Z,5.13
2019-01-29T22:23:51.619Z,6.07
2019-01-29T22:26:20.817Z,5.97
2019-01-29T22:28:49.978Z,5.57
2019-01-29T22:31:20.426Z,5.70
2019-01-29T22:33:52.903Z,6.67
2019-01-29T22:36:22.546Z,6.60
2019-01-29T22:38:52.925Z,6.77
2019-01-29T22:41:22.684Z,7.47
2019-01-29T22:43:58.105Z,7.37
2019-01-29T22:46:27.572Z,7.03
2019-01-29T22:48:58.020Z,6.77
2019-01-29T22:51:30.695Z,7.37
2019-01-29T22:53:59.888Z,7.67
2019-01-29T22:56:29.351Z,7.47
2019-01-29T22:58:58.809Z,8.60
2019-01-29T23:01:47.106Z,8.23
2019-01-29T23:04:37.700Z,8.10
2019-01-29T23:07:44.967Z,8.00
2019-01-29T23:10:16.744Z,8.00
2019-01-29T23:12:47.501Z,8.00
2019-01-29T23:15:20.128Z,8.70
2019-01-29T23:17:49.341Z,8.60
2019-01-29T23:23:10.709Z,8.37
2019-01-29T23:25:42.321Z,8.60
2019-01-29T23:28:20.865Z,9.40
2019-01-29T23:36:29.734Z,9.07
2019-01-29T23:39:02.399Z,9.73
2019-01-29T23:41:36.244Z,8.97
2019-01-29T23:44:08.050Z,10.10
2019-01-29T23:46:48.472Z,9.67
2019-01-29T23:49:37.407Z,9.43
2019-01-29T23:52:07.872Z,10.37
2019-01-29T23:54:39.590Z,10.00
2019-01-29T23:57:08.791Z,9.67
2019-01-29T23:59:38.242Z,9.50
